Twin Falls, Idaho
Current Conditions -  °F | °C
As of 5:53 AM on Saturday 25 Oct 2014 (Local Time) from KTWF Reporting Station
Clear Clear  
Wind Chill: 64°   Ceiling: Unl
Heat Index: 64°   Visibility: 10mi
Dew Point: 27°   Wind: 17mph
Humidity: 25%   Direction: 170°S
Pressure: 29.92"   Gusts: 28mph
Location:  42.56°N, 114.46°W
Report Text: KTWF 251153Z 17015G24KT 10SM CLR 18/M03 A2992 RMK AO2 SLP078 T01781028 10189 20078 56012
Loading
Personal Weather Stations






























Interactive Weather Map New forecast layout! Learn more

10-Day Weather Forecast

Advertisements
Track Severe Weather on mobile